Ana Sayfa
METAR-TAF:

METAR-TAF

Havaalanları :

Şam Havalimanı

Şam, Suriye

Enlem: 33-25N, Boylam: 036-31E, yükseklik: 608 m

Güncel hava durumu gözlemi

Rapor saat 02:00 UTC de 52 dakika önce yapıldı.
Sakin rüzgar
Sıcaklık 1°C
Nem 86%
Basınç 1015 hPa
Görüş mesafesi 10 km veya daha fazla
1500 m altında bulut yok ve kümülonimbus yok

METAR: OSDI 240200Z 00000KT CAVOK 01/M01 Q1015

Saat: 04:52 (02:52 UTC)

Tahmin

Rapor saat 23:00 UTC de 3 saat ve 52 dakika önce yapıldı.
Ayın 24'si saat 00 UTC'den ayın 25'si saat 06 UTC'ye kadar geçerli Tahmin
Rüzgar değişken yönden 3 kt
Görüş mesafesi: 8000 m
3000 ft yükseklikte az bulutlu
Olasılık 30% :
Geçici
ayın 24'si saat 00 UTC'den ayın 24'si saat 06 UTC'ye kadar
Görüş mesafesi: 2000 m
Pus
Geçici
ayın 24'si saat 07 UTC'den ayın 24'si saat 18 UTC'ye kadar
Rüzgar doğudan 10 kt

TAF: OSDI 232300Z 2400/2506 VRB03KT 8000 FEW030 PROB30 TEMPO 2400/2406 2000 BR TEMPO 2407/2418 08010KT

4.000'den fazla havaalanı için hava durumu gözlemleri ve tahminleri (METAR ve TAF raporları).

Kullanılabilir istasyonlar harita üzerinde sarı ve kırmızı noktalarla gösterilir.

İstasyonun adını görmek için fareyi noktanın üzerinde gezdirin.

Sonrasında hava gözlem ve tahminlerini görmek için tıklayın.

Haritayı değiştirmek için: yaklaştırmak için siyah artı işaretli yeşil düğmeye ve uzaklaştırmak için de eksi işaretli düğmeye hızla tıklayın; bitişik haritalar için yeşil okları kullanın.


METAR-TAF: